createdAt,value
2023-02-24T00:01:25.092Z,101383.16
2023-02-24T00:03:56.986Z,101374.34
2023-02-24T00:06:36.196Z,101370.72
2023-02-24T00:09:09.726Z,101370.72
2023-02-24T00:11:45.122Z,101374.06
2023-02-24T00:14:19.254Z,101374.78
2023-02-24T00:16:50.090Z,101365.03
2023-02-24T00:19:25.185Z,101359.72
2023-02-24T00:21:58.806Z,101352.59
2023-02-24T00:24:29.135Z,101350.91
2023-02-24T00:27:01.136Z,101353.31
2023-02-24T00:29:32.633Z,101340.19
2023-02-24T00:32:06.731Z,101324.34
2023-02-24T00:34:38.809Z,101321.75
2023-02-24T00:37:12.304Z,101316.41
2023-02-24T00:39:44.422Z,101312.69
2023-02-24T00:42:15.085Z,101307.38
2023-02-24T00:44:48.744Z,101298.44
2023-02-24T00:47:20.003Z,101291.25
2023-02-24T00:49:50.506Z,101280.53
2023-02-24T00:52:27.981Z,101276.03
2023-02-24T00:54:59.008Z,101277.47
2023-02-24T00:57:28.830Z,101275.47
2023-02-24T00:59:58.998Z,101270.16
2023-02-24T01:02:28.987Z,101269.06
2023-02-24T01:05:00.094Z,101255.84
2023-02-24T01:07:32.581Z,101252.22
2023-02-24T01:10:02.459Z,101248.72
2023-02-24T01:12:38.957Z,101252.94
2023-02-24T01:15:11.398Z,101241.44
2023-02-24T01:17:41.160Z,101245.47
2023-02-24T01:20:18.578Z,101229.66
2023-02-24T01:22:53.721Z,101231.16
2023-02-24T01:25:23.550Z,101233.47
2023-02-24T01:27:54.158Z,101228.06
2023-02-24T01:30:24.034Z,101219.19
2023-02-24T01:32:53.951Z,101211.19
2023-02-24T01:35:24.495Z,101207.47
2023-02-24T01:37:56.928Z,101208.06
2023-02-24T01:40:27.874Z,101206.09
2023-02-24T01:42:57.678Z,101200.72
2023-02-24T01:45:36.839Z,101195.50
2023-02-24T01:48:09.866Z,101196.09
2023-02-24T01:50:41.345Z,101192.59
2023-02-24T01:53:14.223Z,101184.50
2023-02-24T01:55:50.079Z,101181.88
2023-02-24T01:58:25.690Z,101181.00
2023-02-24T02:00:55.674Z,101171.34
2023-02-24T02:03:30.098Z,101167.84
2023-02-24T02:06:04.447Z,101164.34
2023-02-24T02:08:39.593Z,101167.06
2023-02-24T02:11:11.891Z,101164.53
2023-02-24T02:13:46.178Z,101153.31
2023-02-24T02:16:44.243Z,101157.81
2023-02-24T02:19:44.671Z,101144.78
2023-02-24T02:22:45.361Z,101140.28
2023-02-24T02:25:25.652Z,101135.06
2023-02-24T02:28:19.978Z,101127.31
2023-02-24T02:30:58.286Z,101123.00
2023-02-24T02:34:08.437Z,101123.22
2023-02-24T02:36:48.714Z,101118.00
2023-02-24T02:39:24.977Z,101110.25
2023-02-24T02:42:01.619Z,101108.53
2023-02-24T02:44:39.852Z,101102.53
2023-02-24T02:47:18.362Z,101089.56
2023-02-24T02:49:55.010Z,101086.19
2023-02-24T02:52:31.982Z,101086.25
2023-02-24T02:55:07.470Z,101087.16
2023-02-24T02:57:40.330Z,101081.13
2023-02-24T03:00:21.546Z,101072.50
2023-02-24T03:02:55.442Z,101076.81
2023-02-24T03:05:33.315Z,101062.78
2023-02-24T03:08:11.511Z,101064.59
2023-02-24T03:10:44.919Z,101061.09
2023-02-24T03:13:16.772Z,101055.16
2023-02-24T03:15:49.031Z,101048.22
2023-02-24T03:18:29.157Z,101045.69
2023-02-24T03:21:08.105Z,101038.81
2023-02-24T03:23:45.527Z,101037.81
2023-02-24T03:26:23.554Z,101027.38
2023-02-24T03:29:02.223Z,101025.75
2023-02-24T03:31:38.050Z,101029.34
2023-02-24T03:34:13.337Z,101019.81
2023-02-24T03:36:46.029Z,101013.97
2023-02-24T03:39:15.986Z,101001.84
2023-02-24T03:41:54.340Z,101004.53
2023-02-24T03:44:24.857Z,101000.19
2023-02-24T03:46:56.087Z,100990.69
2023-02-24T03:49:27.286Z,100993.38
2023-02-24T03:52:12.655Z,100993.53
2023-02-24T03:55:02.082Z,100989.41
2023-02-24T03:57:55.019Z,100972.06
2023-02-24T04:00:34.418Z,100963.34
2023-02-24T04:03:15.426Z,100960.00
2023-02-24T04:05:52.479Z,100944.41
2023-02-24T04:08:27.771Z,100945.50
2023-02-24T04:11:05.482Z,100938.56
2023-02-24T04:13:40.187Z,100936.84
2023-02-24T04:16:18.491Z,100928.31
2023-02-24T04:18:52.475Z,100918.75
2023-02-24T04:21:25.478Z,100922.34
2023-02-24T04:23:59.963Z,100911.13
2023-02-24T04:26:31.182Z,100908.56
2023-02-24T04:29:01.247Z,100895.63
2023-02-24T04:31:33.330Z,100900.13
2023-02-24T04:34:07.433Z,100882.84
2023-02-24T04:36:38.501Z,100875.09
2023-02-24T04:39:11.564Z,100869.06
2023-02-24T04:41:41.469Z,100864.84
2023-02-24T04:44:11.299Z,100857.16
2023-02-24T04:46:41.153Z,100852.84
2023-02-24T04:49:11.094Z,100852.19
2023-02-24T04:51:42.968Z,100847.03
2023-02-24T04:54:17.765Z,100835.81
2023-02-24T04:56:48.058Z,100828.88
2023-02-24T04:59:19.654Z,100808.78
2023-02-24T05:01:51.793Z,100805.38
2023-02-24T05:04:21.911Z,100800.16
2023-02-24T05:06:51.680Z,100802.03
2023-02-24T05:09:24.180Z,100786.28
2023-02-24T05:11:55.803Z,100785.50
2023-02-24T05:14:25.688Z,100782.78
2023-02-24T05:17:00.260Z,100769.59
2023-02-24T05:19:42.648Z,100765.25
2023-02-24T05:22:14.586Z,100776.59
2023-02-24T05:24:48.221Z,100763.47
2023-02-24T05:27:18.035Z,100757.34
2023-02-24T05:29:49.402Z,100752.13
2023-02-24T05:32:19.609Z,100745.13
2023-02-24T05:34:49.771Z,100732.06
2023-02-24T05:37:19.583Z,100731.97
2023-02-24T05:39:51.950Z,100733.78
2023-02-24T05:42:21.752Z,100719.84
2023-02-24T05:44:51.547Z,100714.56
2023-02-24T05:47:23.480Z,100713.66
2023-02-24T05:49:56.897Z,100707.56
2023-02-24T05:52:26.865Z,100702.16
2023-02-24T05:55:00.913Z,100689.19
2023-02-24T05:57:35.524Z,100695.25
2023-02-24T06:00:16.096Z,100692.69
2023-02-24T06:02:49.932Z,100686.69
2023-02-24T06:05:28.580Z,100674.44
2023-02-24T06:08:05.239Z,100672.81
2023-02-24T06:10:38.855Z,100664.88
2023-02-24T06:13:10.507Z,100649.97
2023-02-24T06:15:41.884Z,100658.72
2023-02-24T06:18:11.798Z,100650.91
2023-02-24T06:20:42.113Z,100637.03
2023-02-24T06:23:11.980Z,100636.28
2023-02-24T06:25:44.464Z,100637.16
2023-02-24T06:28:14.240Z,100636.41
2023-02-24T06:30:44.056Z,100629.47
2023-02-24T06:33:13.980Z,100626.13
2023-02-24T06:35:43.760Z,100627.84
2023-02-24T06:38:14.876Z,100618.38
2023-02-24T06:40:47.641Z,100619.28
2023-02-24T06:43:17.662Z,100611.53
2023-02-24T06:45:47.605Z,100615.94
2023-02-24T06:48:17.397Z,100607.28
2023-02-24T06:50:48.839Z,100597.81
2023-02-24T06:53:19.703Z,100596.03
2023-02-24T06:55:52.135Z,100589.16
2023-02-24T06:58:24.384Z,100597.97
2023-02-24T07:00:59.723Z,100589.31
2023-02-24T07:03:39.729Z,100578.97
2023-02-24T07:06:28.707Z,100585.16
2023-02-24T07:09:01.073Z,100574.63
2023-02-24T07:11:38.633Z,100566.88
2023-02-24T07:14:08.733Z,100562.47
2023-02-24T07:16:41.752Z,100560.84
2023-02-24T07:19:15.275Z,100559.94
2023-02-24T07:21:50.225Z,100559.09
2023-02-24T07:24:25.178Z,100553.09
2023-02-24T07:27:02.790Z,100546.22
2023-02-24T07:29:34.319Z,100538.31
2023-02-24T07:32:06.269Z,100541.94
2023-02-24T07:34:40.401Z,100539.38
2023-02-24T07:37:12.445Z,100528.94
2023-02-24T07:39:43.249Z,100535.97
2023-02-24T07:42:16.285Z,100532.50
2023-02-24T07:44:49.356Z,100531.69
2023-02-24T07:47:21.549Z,100517.00
2023-02-24T07:49:51.434Z,100516.31
2023-02-24T07:52:21.399Z,100503.41
2023-02-24T07:54:51.246Z,100498.19
2023-02-24T07:57:25.319Z,100493.84
2023-02-24T07:59:55.261Z,100495.56
2023-02-24T08:02:25.204Z,100477.31
2023-02-24T08:04:55.298Z,100471.31
2023-02-24T08:07:30.509Z,100470.56
2023-02-24T08:10:12.753Z,100466.31
2023-02-24T08:12:47.564Z,100452.56
2023-02-24T08:15:24.390Z,100461.34
2023-02-24T08:17:59.787Z,100456.31
2023-02-24T08:20:36.280Z,100445.97
2023-02-24T08:23:11.281Z,100446.19
2023-02-24T08:25:44.723Z,100438.47
2023-02-24T08:28:17.920Z,100433.47
2023-02-24T08:30:48.003Z,100430.16
2023-02-24T08:33:23.201Z,100430.28
2023-02-24T08:36:01.434Z,100432.19
2023-02-24T08:38:40.109Z,100435.03
2023-02-24T08:41:18.300Z,100429.16
2023-02-24T08:43:51.742Z,100411.00
2023-02-24T08:46:26.866Z,100419.03
2023-02-24T08:49:00.929Z,100412.25
2023-02-24T08:51:35.088Z,100403.69
2023-02-24T08:54:11.681Z,100399.41
2023-02-24T08:56:44.033Z,100403.94
2023-02-24T08:59:31.662Z,100397.03
2023-02-24T09:02:14.637Z,100391.88
2023-02-24T09:04:46.157Z,100379.97
2023-02-24T09:07:18.192Z,100394.06
2023-02-24T09:09:48.111Z,100389.84
2023-02-24T09:12:25.088Z,100386.59
2023-02-24T09:15:01.469Z,100390.31
2023-02-24T09:18:01.462Z,100389.75
2023-02-24T09:20:52.324Z,100387.31
2023-02-24T09:23:30.090Z,100376.19
2023-02-24T09:26:11.326Z,100375.56
2023-02-24T09:28:48.948Z,100376.56
2023-02-24T09:31:24.162Z,100379.41
2023-02-24T09:33:54.364Z,100372.63
2023-02-24T09:36:28.235Z,100379.06
2023-02-24T09:39:12.225Z,100377.53
2023-02-24T09:41:57.163Z,100372.50
2023-02-24T09:44:35.878Z,100364.06
2023-02-24T09:47:20.059Z,100368.78
2023-02-24T09:50:01.838Z,100369.03
2023-02-24T09:52:43.810Z,100366.81
2023-02-24T09:55:27.864Z,100373.13
2023-02-24T09:58:15.921Z,100376.00
2023-02-24T10:00:56.791Z,100370.84
2023-02-24T10:03:48.316Z,100366.50
2023-02-24T10:06:22.693Z,100371.09
2023-02-24T10:08:57.934Z,100365.84
2023-02-24T10:11:35.725Z,100358.25
2023-02-24T10:14:09.793Z,100362.06
2023-02-24T10:16:59.199Z,100363.28
2023-02-24T10:19:34.755Z,100362.53
2023-02-24T10:22:10.409Z,100366.09
2023-02-24T10:24:47.597Z,100365.38
2023-02-24T10:27:24.250Z,100355.97
2023-02-24T10:30:05.515Z,100353.50
2023-02-24T10:32:47.256Z,100359.69
2023-02-24T10:35:26.124Z,100351.94
2023-02-24T10:38:05.359Z,100344.16
2023-02-24T10:40:45.184Z,100349.53
2023-02-24T10:43:30.216Z,100350.47
2023-02-24T10:46:17.547Z,100348.56
2023-02-24T10:49:00.654Z,100353.81
2023-02-24T10:51:37.348Z,100343.25
2023-02-24T10:54:27.224Z,100346.91
2023-02-24T10:57:08.119Z,100331.25
2023-02-24T11:00:14.424Z,100339.31
2023-02-24T11:03:07.317Z,100326.19
2023-02-24T11:05:44.511Z,100324.69
2023-02-24T11:08:36.770Z,100323.88
2023-02-24T11:11:20.544Z,100323.09
2023-02-24T11:14:06.970Z,100312.75
2023-02-24T11:16:58.740Z,100323.22
2023-02-24T11:19:32.017Z,100314.41
2023-02-24T11:22:02.732Z,100305.69
2023-02-24T11:24:35.175Z,100304.06
2023-02-24T11:27:07.590Z,100300.81
2023-02-24T11:29:51.303Z,100294.75
2023-02-24T11:32:41.550Z,100287.94
2023-02-24T11:35:20.814Z,100322.19
2023-02-24T11:38:06.040Z,100316.25
2023-02-24T11:40:42.219Z,100300.69
2023-02-24T11:43:18.596Z,100303.69
2023-02-24T11:45:51.364Z,100306.75
2023-02-24T11:48:25.345Z,100299.38
2023-02-24T11:50:58.749Z,100294.59
2023-02-24T11:53:33.981Z,100296.16
2023-02-24T11:56:12.973Z,100288.84
2023-02-24T11:58:41.006Z,100293.78
2023-02-24T12:01:17.587Z,100294.69
2023-02-24T12:03:55.325Z,100286.09
2023-02-24T12:06:30.992Z,100277.50
2023-02-24T12:09:07.996Z,100280.31
2023-02-24T12:11:48.964Z,100281.38
2023-02-24T12:14:26.697Z,100284.34
2023-02-24T12:17:07.324Z,100280.06
2023-02-24T12:19:54.823Z,100274.72
2023-02-24T12:22:29.453Z,100266.84
2023-02-24T12:24:59.561Z,100263.56
2023-02-24T12:27:46.529Z,100256.88
2023-02-24T12:30:49.015Z,100257.28
2023-02-24T12:33:45.902Z,100257.53
2023-02-24T12:36:30.811Z,100252.50
2023-02-24T12:39:10.880Z,100248.28
2023-02-24T12:41:54.093Z,100248.38
2023-02-24T12:44:38.685Z,100250.06
2023-02-24T12:47:14.327Z,100244.81
2023-02-24T12:49:59.598Z,100251.78
2023-02-24T12:52:37.424Z,100247.44
2023-02-24T12:55:14.779Z,100243.94
2023-02-24T12:57:52.339Z,100245.59
2023-02-24T13:00:32.611Z,100235.81
2023-02-24T13:03:13.134Z,100241.81
2023-02-24T13:05:47.989Z,100238.25
2023-02-24T13:08:29.653Z,100228.53
2023-02-24T13:11:10.032Z,100244.25
2023-02-24T13:13:49.005Z,100234.41
2023-02-24T13:16:30.797Z,100228.06
2023-02-24T13:19:21.197Z,100238.84
2023-02-24T13:22:06.358Z,100234.75
2023-02-24T13:24:37.826Z,100224.88
2023-02-24T13:27:23.746Z,100220.41
2023-02-24T13:29:57.607Z,100212.72
2023-02-24T13:32:34.467Z,100211.13
2023-02-24T13:35:06.677Z,100225.31
2023-02-24T13:37:39.544Z,100201.00
2023-02-24T13:40:29.350Z,100217.44
2023-02-24T13:43:02.401Z,100232.09
2023-02-24T13:45:34.143Z,100224.00
2023-02-24T13:48:30.442Z,100222.19
2023-02-24T13:51:25.632Z,100218.75
2023-02-24T13:54:09.611Z,100206.47
2023-02-24T13:56:45.661Z,100209.09
2023-02-24T13:59:36.600Z,100210.81
2023-02-24T14:02:15.428Z,100207.34
2023-02-24T14:04:53.383Z,100207.34
2023-02-24T14:07:26.309Z,100207.47
2023-02-24T14:10:00.817Z,100231.09
2023-02-24T14:12:33.726Z,100207.31
2023-02-24T14:15:06.229Z,100203.69
2023-02-24T14:17:38.888Z,100208.19
2023-02-24T14:20:22.009Z,100211.78
2023-02-24T14:22:53.520Z,100210.88
2023-02-24T14:25:25.711Z,100212.66
2023-02-24T14:27:58.283Z,100210.03
2023-02-24T14:30:31.991Z,100212.50
2023-02-24T14:33:02.833Z,100213.25
2023-02-24T14:35:39.241Z,100211.19
2023-02-24T14:38:09.313Z,100209.19
2023-02-24T14:40:39.125Z,100206.31
2023-02-24T14:43:17.667Z,100207.94
2023-02-24T14:45:52.429Z,100222.81
2023-02-24T14:48:28.571Z,100214.13
2023-02-24T14:51:04.857Z,100208.16
2023-02-24T14:53:38.540Z,100208.13
2023-02-24T14:56:09.959Z,100212.34
2023-02-24T14:58:46.904Z,100209.00
2023-02-24T15:01:24.263Z,100207.16
2023-02-24T15:03:57.527Z,100207.72
2023-02-24T15:06:33.307Z,100206.56
2023-02-24T15:09:05.792Z,100207.41
2023-02-24T15:11:37.411Z,100206.47
2023-02-24T15:14:10.556Z,100207.19
2023-02-24T15:16:42.901Z,100206.38
2023-02-24T15:19:27.436Z,100204.63
2023-02-24T15:22:00.054Z,100212.59
2023-02-24T15:24:32.074Z,100223.84
2023-02-24T15:27:03.993Z,100201.06
2023-02-24T15:29:34.526Z,100216.66
2023-02-24T15:32:08.028Z,100227.97
2023-02-24T15:34:39.690Z,100229.41
2023-02-24T15:37:24.050Z,100237.72
2023-02-24T15:39:55.362Z,100232.03
2023-02-24T15:42:32.531Z,100237.88
2023-02-24T15:45:04.159Z,100233.41
2023-02-24T15:47:43.526Z,100223.59
2023-02-24T15:50:16.230Z,100220.81
2023-02-24T15:52:48.789Z,100231.16
2023-02-24T15:55:19.737Z,100221.47
2023-02-24T15:57:51.995Z,100221.31
2023-02-24T16:00:23.876Z,100218.56
2023-02-24T16:02:53.856Z,100220.22
2023-02-24T16:05:23.652Z,100229.06
2023-02-24T16:07:56.945Z,100213.44
2023-02-24T16:10:29.731Z,100216.09
2023-02-24T16:13:02.033Z,100217.91
2023-02-24T16:15:33.971Z,100218.84
2023-02-24T16:18:04.929Z,100220.63
2023-02-24T16:20:39.816Z,100214.63
2023-02-24T16:23:14.932Z,100218.19
2023-02-24T16:25:47.533Z,100219.91
2023-02-24T16:28:18.649Z,100227.75
2023-02-24T16:30:48.998Z,100223.41
2023-02-24T16:33:23.792Z,100221.69
2023-02-24T16:35:54.774Z,100229.47
2023-02-24T16:38:29.757Z,100228.56
2023-02-24T16:40:59.603Z,100248.59
2023-02-24T16:43:29.954Z,100244.94
2023-02-24T16:46:06.437Z,100261.31
2023-02-24T16:48:38.045Z,100265.63
2023-02-24T16:51:08.774Z,100264.47
2023-02-24T16:53:41.204Z,100262.31
2023-02-24T16:56:12.509Z,100256.72
2023-02-24T16:58:42.292Z,100269.59
2023-02-24T17:01:19.252Z,100260.75
2023-02-24T17:03:51.560Z,100258.06
2023-02-24T17:06:25.145Z,100281.56
2023-02-24T17:08:57.920Z,100271.56
2023-02-24T17:11:30.098Z,100271.25
2023-02-24T17:14:00.543Z,100277.19
2023-02-24T17:16:30.348Z,100276.25
2023-02-24T17:19:00.210Z,100267.56
2023-02-24T17:21:29.981Z,100265.91
2023-02-24T17:24:02.472Z,100266.03
2023-02-24T17:26:32.348Z,100268.72
2023-02-24T17:29:02.149Z,100260.13
2023-02-24T17:31:33.185Z,100274.16
2023-02-24T17:34:05.913Z,100270.75
2023-02-24T17:36:36.050Z,100272.63
2023-02-24T17:39:08.625Z,100272.78
2023-02-24T17:41:38.495Z,100278.06
2023-02-24T17:44:08.317Z,100279.91
2023-02-24T17:46:38.155Z,100273.13
2023-02-24T17:49:08.138Z,100266.16
2023-02-24T17:51:38.018Z,100283.72
2023-02-24T17:54:10.595Z,100286.66
2023-02-24T17:56:40.401Z,100290.09
2023-02-24T17:59:10.220Z,100290.88
2023-02-24T18:01:39.963Z,100296.75
2023-02-24T18:04:09.734Z,100299.25
2023-02-24T18:06:39.508Z,100297.81
2023-02-24T18:09:12.562Z,100284.41
2023-02-24T18:11:45.874Z,100291.16
2023-02-24T18:14:15.994Z,100298.78
2023-02-24T18:16:45.765Z,100284.06
2023-02-24T18:19:15.588Z,100292.88
2023-02-24T18:21:48.246Z,100289.63
2023-02-24T18:24:22.869Z,100294.06
2023-02-24T18:26:52.938Z,100288.97
2023-02-24T18:29:23.347Z,100290.75
2023-02-24T18:31:53.387Z,100287.31
2023-02-24T18:34:23.264Z,100284.72
2023-02-24T18:36:53.233Z,100274.16
2023-02-24T18:39:25.902Z,100275.78
2023-02-24T18:41:56.273Z,100283.63
2023-02-24T18:44:27.062Z,100288.00
2023-02-24T18:46:56.869Z,100277.63
2023-02-24T18:49:26.738Z,100289.81
2023-02-24T18:51:56.601Z,100285.41
2023-02-24T18:54:29.064Z,100288.97
2023-02-24T18:56:58.844Z,100300.31
2023-02-24T18:59:28.685Z,100299.31
2023-02-24T19:01:59.073Z,100290.50
2023-02-24T19:04:28.919Z,100295.59
2023-02-24T19:06:58.714Z,100301.63
2023-02-24T19:09:31.097Z,100292.03
2023-02-24T19:12:01.946Z,100297.19
2023-02-24T19:14:31.899Z,100289.34
2023-02-24T19:17:03.209Z,100286.81
2023-02-24T19:19:32.999Z,100308.38
2023-02-24T19:22:03.118Z,100307.56
2023-02-24T19:24:35.491Z,100318.16
2023-02-24T19:27:05.226Z,100315.63
2023-02-24T19:29:35.010Z,100317.59
2023-02-24T19:32:04.812Z,100321.97
2023-02-24T19:34:34.651Z,100319.16
2023-02-24T19:37:04.418Z,100308.53
2023-02-24T19:39:36.820Z,100322.34
2023-02-24T19:42:07.009Z,100337.88
2023-02-24T19:44:37.151Z,100346.47
2023-02-24T19:47:07.487Z,100339.41
2023-02-24T19:49:37.254Z,100340.22
2023-02-24T19:52:07.006Z,100330.66
2023-02-24T19:54:39.415Z,100335.78
2023-02-24T19:57:10.375Z,100334.69
2023-02-24T19:59:40.300Z,100347.66
2023-02-24T20:02:10.703Z,100345.81
2023-02-24T20:04:40.550Z,100336.88
2023-02-24T20:07:10.338Z,100342.81
2023-02-24T20:09:44.118Z,100340.03
2023-02-24T20:12:14.124Z,100353.09
2023-02-24T20:14:43.961Z,100358.31
2023-02-24T20:17:13.715Z,100345.41
2023-02-24T20:19:43.484Z,100351.28
2023-02-24T20:22:13.760Z,100331.09
2023-02-24T20:24:47.579Z,100338.56
2023-02-24T20:27:19.111Z,100344.63
2023-02-24T20:29:49.049Z,100333.31
2023-02-24T20:32:18.920Z,100348.97
2023-02-24T20:34:49.298Z,100333.47
2023-02-24T20:37:23.216Z,100347.56
2023-02-24T20:39:57.096Z,100344.28
2023-02-24T20:42:26.863Z,100342.66
2023-02-24T20:44:56.630Z,100362.72
2023-02-24T20:47:26.529Z,100398.56
2023-02-24T20:49:56.292Z,100389.34
2023-02-24T20:52:26.050Z,100365.91
2023-02-24T20:54:58.432Z,100358.53
2023-02-24T20:57:30.541Z,100361.97
2023-02-24T21:00:04.961Z,100356.63
2023-02-24T21:02:34.763Z,100359.47
2023-02-24T21:05:04.591Z,100351.63
2023-02-24T21:07:37.010Z,100358.63
2023-02-24T21:10:10.127Z,100363.16
2023-02-24T21:12:40.162Z,100366.88
2023-02-24T21:15:12.408Z,100359.22
2023-02-24T21:17:42.596Z,100367.34
2023-02-24T21:20:14.540Z,100364.78
2023-02-24T21:22:44.886Z,100365.00
2023-02-24T21:25:17.550Z,100351.28
2023-02-24T21:27:48.684Z,100362.84
2023-02-24T21:30:23.155Z,100364.50
2023-02-24T21:32:52.949Z,100367.56
2023-02-24T21:35:22.757Z,100366.94
2023-02-24T21:37:52.555Z,100356.91
2023-02-24T21:40:24.997Z,100353.28
2023-02-24T21:42:54.904Z,100352.28
2023-02-24T21:45:24.729Z,100353.06
2023-02-24T21:47:54.509Z,100356.47
2023-02-24T21:50:25.004Z,100358.94
2023-02-24T21:52:56.042Z,100358.81
2023-02-24T21:55:28.391Z,100351.72
2023-02-24T21:57:58.162Z,100357.06
2023-02-24T22:00:28.795Z,100357.97
2023-02-24T22:02:59.040Z,100369.31
2023-02-24T22:05:29.680Z,100360.78
2023-02-24T22:07:59.610Z,100363.56
2023-02-24T22:10:32.153Z,100378.25
2023-02-24T22:13:01.985Z,100388.47
2023-02-24T22:15:31.807Z,100388.38
2023-02-24T22:18:01.788Z,100379.66
2023-02-24T22:20:31.558Z,100379.81
2023-02-24T22:23:01.375Z,100392.09
2023-02-24T22:25:33.777Z,100374.66
2023-02-24T22:28:03.579Z,100370.22
2023-02-24T22:30:33.370Z,100370.22
2023-02-24T22:33:06.022Z,100367.06
2023-02-24T22:35:37.155Z,100374.41
2023-02-24T22:38:10.048Z,100374.69
2023-02-24T22:40:42.557Z,100379.22
2023-02-24T22:43:12.351Z,100388.91
2023-02-24T22:45:42.178Z,100385.63
2023-02-24T22:48:11.991Z,100395.34
2023-02-24T22:50:41.817Z,100389.34
2023-02-24T22:53:11.665Z,100400.66
2023-02-24T22:55:48.708Z,100398.13
2023-02-24T22:58:18.519Z,100391.34
2023-02-24T23:00:49.346Z,100400.22
2023-02-24T23:03:21.729Z,100405.63
2023-02-24T23:05:57.928Z,100397.88
2023-02-24T23:08:28.263Z,100410.25
2023-02-24T23:11:06.983Z,100415.47
2023-02-24T23:13:38.437Z,100412.88
2023-02-24T23:16:11.535Z,100401.59
2023-02-24T23:18:41.371Z,100412.13
2023-02-24T23:21:12.969Z,100420.88
2023-02-24T23:23:42.770Z,100411.28
2023-02-24T23:26:15.330Z,100417.38
2023-02-24T23:28:45.151Z,100425.97
2023-02-24T23:31:20.987Z,100437.16
2023-02-24T23:33:51.083Z,100426.59
2023-02-24T23:36:22.021Z,100423.78
2023-02-24T23:38:52.112Z,100422.88
2023-02-24T23:41:24.461Z,100426.97
2023-02-24T23:43:54.382Z,100434.66
2023-02-24T23:46:24.763Z,100438.91
2023-02-24T23:48:57.401Z,100435.41
2023-02-24T23:51:38.598Z,100439.72
2023-02-24T23:54:15.990Z,100438.84
2023-02-24T23:56:48.474Z,100438.25
2023-02-24T23:59:18.814Z,100441.03
